createdAt,value
2022-09-06T00:00:58.428Z,74.46
2022-09-06T00:03:27.784Z,74.66
2022-09-06T00:05:55.400Z,74.90
2022-09-06T00:08:22.496Z,75.63
2022-09-06T00:11:01.082Z,75.90
2022-09-06T00:13:28.924Z,74.51
2022-09-06T00:15:56.121Z,73.64
2022-09-06T00:18:23.322Z,73.58
2022-09-06T00:20:50.402Z,73.73
2022-09-06T00:23:17.449Z,73.82
2022-09-06T00:25:44.424Z,73.74
2022-09-06T00:28:11.444Z,74.69
2022-09-06T00:30:38.565Z,76.29
2022-09-06T00:33:05.501Z,77.06
2022-09-06T00:35:32.553Z,77.06
2022-09-06T00:38:00.627Z,76.17
2022-09-06T00:40:29.626Z,75.16
2022-09-06T00:42:57.718Z,75.08
2022-09-06T00:45:25.585Z,75.47
2022-09-06T00:47:52.705Z,75.93
2022-09-06T00:50:19.957Z,75.99
2022-09-06T00:52:47.857Z,76.53
2022-09-06T00:55:14.872Z,77.35
2022-09-06T00:57:42.249Z,77.30
2022-09-06T01:00:10.402Z,75.68
2022-09-06T01:02:37.476Z,74.74
2022-09-06T01:05:05.830Z,74.40
2022-09-06T01:07:54.712Z,74.62
2022-09-06T01:10:27.872Z,74.98
2022-09-06T01:13:01.527Z,75.60
2022-09-06T01:15:38.042Z,76.00
2022-09-06T01:18:11.249Z,77.02
2022-09-06T01:21:10.686Z,77.10
2022-09-06T01:23:50.078Z,75.63
2022-09-06T01:26:38.556Z,75.13
2022-09-06T01:29:10.078Z,75.30
2022-09-06T01:31:48.393Z,75.49
2022-09-06T01:34:26.788Z,75.93
2022-09-06T01:37:09.935Z,76.31
2022-09-06T01:39:37.355Z,76.96
2022-09-06T01:42:22.258Z,76.56
2022-09-06T01:44:55.796Z,74.68
2022-09-06T01:47:28.837Z,73.67
2022-09-06T01:50:15.976Z,73.96
2022-09-06T01:52:55.392Z,74.37
2022-09-06T01:55:27.147Z,75.17
2022-09-06T01:58:19.394Z,75.62
2022-09-06T02:01:05.264Z,76.02
2022-09-06T02:04:04.275Z,77.23
2022-09-06T02:06:33.775Z,76.60
2022-09-06T02:09:06.548Z,74.74
2022-09-06T02:11:42.383Z,73.85
2022-09-06T02:14:16.423Z,74.56
2022-09-06T02:16:48.334Z,74.95
2022-09-06T02:19:18.308Z,74.87
2022-09-06T02:21:46.373Z,75.45
2022-09-06T02:24:17.205Z,76.46
2022-09-06T02:26:44.466Z,76.63
2022-09-06T02:29:11.606Z,74.74
2022-09-06T02:32:01.698Z,73.99
2022-09-06T02:34:29.358Z,73.84
2022-09-06T02:36:56.430Z,74.39
2022-09-06T02:39:23.799Z,75.43
2022-09-06T02:41:51.008Z,76.10
2022-09-06T02:44:17.982Z,76.45
2022-09-06T02:46:45.081Z,76.32
2022-09-06T02:49:12.082Z,75.14
2022-09-06T02:51:39.532Z,74.45
2022-09-06T02:54:06.790Z,74.41
2022-09-06T02:56:34.646Z,74.66
2022-09-06T02:59:01.669Z,74.79
2022-09-06T03:01:28.674Z,75.09
2022-09-06T03:03:56.382Z,76.09
2022-09-06T03:06:23.965Z,76.46
2022-09-06T03:08:51.659Z,76.08
2022-09-06T03:11:18.574Z,74.04
2022-09-06T03:13:45.593Z,72.14
2022-09-06T03:16:12.696Z,72.51
2022-09-06T03:18:39.809Z,72.97
2022-09-06T03:21:06.732Z,73.70
2022-09-06T03:23:34.602Z,74.67
2022-09-06T03:26:01.648Z,75.77
2022-09-06T03:28:28.872Z,76.36
2022-09-06T03:30:56.112Z,75.82
2022-09-06T03:33:24.015Z,73.77
2022-09-06T03:35:53.976Z,72.27
2022-09-06T03:38:21.304Z,72.67
2022-09-06T03:40:48.958Z,73.86
2022-09-06T03:43:17.223Z,74.52
2022-09-06T03:45:48.321Z,74.67
2022-09-06T03:48:15.723Z,75.63
2022-09-06T03:50:50.127Z,76.40
2022-09-06T03:53:17.604Z,75.96
2022-09-06T03:55:46.181Z,74.15
2022-09-06T03:58:13.459Z,73.88
2022-09-06T04:00:41.095Z,73.99
2022-09-06T04:03:08.170Z,73.47
2022-09-06T04:05:35.699Z,73.62
2022-09-06T04:08:03.286Z,74.20
2022-09-06T04:10:30.435Z,74.47
2022-09-06T04:12:57.661Z,74.60
2022-09-06T04:15:24.811Z,73.50
2022-09-06T04:17:52.062Z,71.41
2022-09-06T04:20:19.136Z,70.86
2022-09-06T04:22:46.274Z,69.99
2022-09-06T04:25:14.158Z,70.55
2022-09-06T04:27:41.482Z,71.29
2022-09-06T04:30:09.373Z,72.41
2022-09-06T04:32:36.494Z,72.91
2022-09-06T04:35:04.483Z,71.92
2022-09-06T04:37:32.257Z,71.90
2022-09-06T04:39:59.545Z,71.34
2022-09-06T04:42:26.840Z,70.41
2022-09-06T04:44:54.198Z,69.46
2022-09-06T04:47:21.212Z,69.25
2022-09-06T04:49:49.650Z,69.06
2022-09-06T04:52:16.865Z,70.14
2022-09-06T04:54:44.021Z,70.78
2022-09-06T04:57:11.485Z,70.37
2022-09-06T04:59:38.733Z,71.30
2022-09-06T05:02:06.022Z,71.71
2022-09-06T05:04:33.153Z,72.07
2022-09-06T05:07:04.995Z,71.02
2022-09-06T05:09:33.122Z,68.17
2022-09-06T05:12:00.535Z,67.45
2022-09-06T05:14:28.499Z,67.25
2022-09-06T05:16:55.833Z,67.18
2022-09-06T05:19:23.402Z,68.21
2022-09-06T05:21:53.851Z,68.29
2022-09-06T05:24:21.307Z,68.07
2022-09-06T05:26:48.531Z,67.95
2022-09-06T05:29:15.887Z,66.58
2022-09-06T05:31:43.192Z,66.42
2022-09-06T05:34:10.914Z,66.34
2022-09-06T05:36:39.080Z,66.81
2022-09-06T05:39:06.354Z,67.96
2022-09-06T05:41:34.195Z,68.17
2022-09-06T05:44:01.374Z,66.15
2022-09-06T05:46:28.607Z,64.86
2022-09-06T05:48:58.151Z,65.04
2022-09-06T05:51:25.460Z,64.70
2022-09-06T05:53:52.861Z,65.02
2022-09-06T05:56:20.093Z,64.78
2022-09-06T05:58:47.417Z,64.93
2022-09-06T06:01:18.882Z,65.07
2022-09-06T06:04:08.338Z,64.94
2022-09-06T06:06:35.408Z,65.04
2022-09-06T06:09:02.536Z,64.82
2022-09-06T06:11:30.969Z,65.53
2022-09-06T06:13:59.308Z,65.30
2022-09-06T06:16:26.475Z,64.53
2022-09-06T06:18:53.671Z,65.45
2022-09-06T06:21:24.948Z,65.65
2022-09-06T06:23:56.884Z,65.16
2022-09-06T06:26:24.578Z,65.20
2022-09-06T06:28:52.125Z,64.34
2022-09-06T06:31:21.262Z,64.59
2022-09-06T06:33:49.021Z,64.51
2022-09-06T06:36:16.239Z,63.92
2022-09-06T06:38:44.628Z,60.89
2022-09-06T06:41:13.509Z,59.93
2022-09-06T06:43:40.680Z,59.43
2022-09-06T06:46:10.200Z,59.37
2022-09-06T06:48:38.335Z,59.48
2022-09-06T06:51:06.098Z,59.87
2022-09-06T06:53:33.137Z,60.16
2022-09-06T06:56:00.298Z,58.56
2022-09-06T06:58:27.680Z,58.74
2022-09-06T07:00:54.839Z,58.21
2022-09-06T07:03:22.012Z,57.35
2022-09-06T07:08:37.462Z,58.29
2022-09-06T07:11:06.054Z,56.62
2022-09-06T07:13:34.428Z,56.56
2022-09-06T07:16:07.838Z,53.33
2022-09-06T07:18:35.467Z,53.48
2022-09-06T07:26:32.652Z,54.20
2022-09-06T07:29:01.270Z,53.55
2022-09-06T07:34:17.858Z,52.15
2022-09-06T07:36:45.012Z,49.79
2022-09-06T07:39:12.079Z,50.51
2022-09-06T07:41:39.420Z,50.73
2022-09-06T07:44:06.382Z,50.61
2022-09-06T07:46:33.514Z,47.99
2022-09-06T07:49:00.962Z,44.65
2022-09-06T07:51:28.010Z,45.43
2022-09-06T07:54:13.340Z,47.34
2022-09-06T07:56:45.246Z,44.43
2022-09-06T07:59:12.192Z,41.56
2022-09-06T08:01:39.609Z,40.41
2022-09-06T08:04:11.420Z,41.07
2022-09-06T08:09:27.035Z,38.66
2022-09-06T08:11:54.262Z,38.36
2022-09-06T08:14:21.421Z,39.12
2022-09-06T08:16:48.458Z,39.26
2022-09-06T08:19:15.840Z,38.27
2022-09-06T08:21:42.967Z,36.57
2022-09-06T08:24:10.498Z,36.58
2022-09-06T08:26:40.878Z,36.45
2022-09-06T08:29:09.049Z,36.26
2022-09-06T08:31:37.698Z,37.38
2022-09-06T08:34:04.886Z,35.47
2022-09-06T08:36:32.521Z,35.01
2022-09-06T08:39:00.692Z,34.08
2022-09-06T08:41:48.762Z,34.96
2022-09-06T08:47:15.010Z,37.35
2022-09-06T08:49:43.683Z,38.17
2022-09-06T08:52:37.513Z,38.77
2022-09-06T08:55:18.318Z,36.56
2022-09-06T08:57:48.459Z,34.92
2022-09-06T09:00:15.510Z,33.44
2022-09-06T09:02:44.369Z,35.24
2022-09-06T09:05:18.835Z,35.28
2022-09-06T09:07:50.260Z,34.53
2022-09-06T09:10:45.509Z,35.02
2022-09-06T09:13:40.581Z,35.67
2022-09-06T09:16:07.730Z,36.28
2022-09-06T09:18:38.503Z,36.73
2022-09-06T09:21:05.687Z,35.15
2022-09-06T09:23:32.738Z,35.33
2022-09-06T09:26:05.211Z,35.06
2022-09-06T09:28:32.284Z,35.50
2022-09-06T09:30:59.638Z,35.53
2022-09-06T09:33:35.069Z,35.27
2022-09-06T09:36:05.691Z,35.18
2022-09-06T09:38:54.432Z,36.48
2022-09-06T09:41:32.345Z,37.58
2022-09-06T09:44:04.630Z,36.74
2022-09-06T09:46:36.538Z,36.74
2022-09-06T09:49:22.494Z,37.04
2022-09-06T09:52:06.914Z,37.12
2022-09-06T09:54:37.248Z,35.26
2022-09-06T09:57:12.265Z,36.06
2022-09-06T09:59:44.473Z,37.34
2022-09-06T10:02:39.364Z,37.41
2022-09-06T10:05:12.872Z,38.25
2022-09-06T10:07:53.888Z,37.87
2022-09-06T10:10:25.819Z,37.45
2022-09-06T10:13:26.767Z,37.29
2022-09-06T10:15:54.725Z,38.02
2022-09-06T10:18:33.261Z,38.39
2022-09-06T10:21:07.559Z,38.00
2022-09-06T10:24:27.998Z,39.62
2022-09-06T10:27:02.485Z,40.09
2022-09-06T10:29:58.681Z,38.72
2022-09-06T10:32:42.810Z,39.82
2022-09-06T10:35:19.506Z,39.81
2022-09-06T10:37:49.726Z,38.38
2022-09-06T10:40:27.781Z,37.45
2022-09-06T10:42:55.083Z,37.86
2022-09-06T10:45:40.988Z,38.92
2022-09-06T10:48:15.013Z,38.20
2022-09-06T10:50:44.186Z,38.12
2022-09-06T10:53:33.557Z,39.55
2022-09-06T10:56:25.729Z,40.17
2022-09-06T11:02:24.970Z,40.72
2022-09-06T11:10:32.955Z,39.04
2022-09-06T11:13:13.316Z,39.21
2022-09-06T11:15:45.289Z,40.30
2022-09-06T11:18:39.567Z,39.22
2022-09-06T11:21:19.558Z,39.12
2022-09-06T11:23:48.593Z,39.55
2022-09-06T11:26:38.347Z,40.26
2022-09-06T11:29:29.317Z,40.30
2022-09-06T11:32:18.732Z,39.20
2022-09-06T11:34:56.363Z,39.09
2022-09-06T11:37:28.852Z,37.10
2022-09-06T11:40:27.703Z,37.76
2022-09-06T11:42:55.631Z,37.32
2022-09-06T11:45:49.988Z,36.25
2022-09-06T11:48:35.568Z,34.95
2022-09-06T11:51:03.962Z,34.64
2022-09-06T11:53:32.560Z,34.26
2022-09-06T11:56:02.652Z,34.73
2022-09-06T11:58:32.898Z,35.51
2022-09-06T12:01:12.340Z,35.35
2022-09-06T12:04:05.551Z,34.43
2022-09-06T12:06:35.826Z,35.35
2022-09-06T12:09:03.154Z,33.46
2022-09-06T12:11:48.744Z,34.58
2022-09-06T12:14:40.525Z,35.09
2022-09-06T12:17:09.078Z,33.93
2022-09-06T12:19:49.504Z,34.25
2022-09-06T12:22:37.874Z,34.04
2022-09-06T12:25:08.003Z,35.27
2022-09-06T12:27:37.852Z,33.75
2022-09-06T12:30:12.405Z,33.93
2022-09-06T12:32:49.013Z,34.81
2022-09-06T12:38:08.571Z,35.14
2022-09-06T12:40:41.610Z,35.13
2022-09-06T12:43:10.242Z,34.11
2022-09-06T12:45:37.529Z,34.18
2022-09-06T12:48:09.954Z,35.20
2022-09-06T12:50:37.350Z,34.82
2022-09-06T12:53:17.902Z,35.32
2022-09-06T12:55:47.523Z,36.04
2022-09-06T12:58:14.643Z,35.51
2022-09-06T13:00:44.365Z,34.94
2022-09-06T13:03:35.980Z,36.36
2022-09-06T13:06:05.623Z,35.70
2022-09-06T13:08:50.350Z,36.79
2022-09-06T13:11:20.575Z,36.56
2022-09-06T13:13:49.103Z,36.18
2022-09-06T13:16:24.002Z,37.66
2022-09-06T13:18:51.265Z,38.83
2022-09-06T13:21:33.028Z,38.43
2022-09-06T13:24:04.184Z,38.50
2022-09-06T13:26:38.878Z,38.41
2022-09-06T13:29:30.973Z,38.63
2022-09-06T13:31:59.648Z,39.11
2022-09-06T13:34:30.411Z,39.29
2022-09-06T13:37:03.435Z,39.77
2022-09-06T13:39:35.363Z,39.94
2022-09-06T13:42:07.780Z,39.41
2022-09-06T13:44:38.316Z,38.65
2022-09-06T13:47:05.776Z,38.89
2022-09-06T13:49:34.119Z,39.29
2022-09-06T13:52:02.512Z,38.51
2022-09-06T13:54:30.494Z,38.29
2022-09-06T13:56:57.948Z,37.60
2022-09-06T13:59:25.450Z,37.30
2022-09-06T14:02:13.215Z,36.34
2022-09-06T14:04:40.492Z,36.23
2022-09-06T14:07:07.536Z,36.56
2022-09-06T14:09:34.809Z,36.47
2022-09-06T14:12:05.137Z,36.50
2022-09-06T14:14:32.140Z,37.06
2022-09-06T14:16:59.032Z,36.30
2022-09-06T14:19:26.014Z,36.92
2022-09-06T14:21:53.139Z,37.24
2022-09-06T14:24:20.384Z,36.81
2022-09-06T14:26:47.403Z,36.58
2022-09-06T14:29:14.553Z,36.58
2022-09-06T14:31:41.717Z,37.65
2022-09-06T14:34:08.864Z,37.58
2022-09-06T14:36:35.898Z,37.77
2022-09-06T14:39:03.291Z,38.26
2022-09-06T14:41:30.508Z,37.16
2022-09-06T14:43:58.270Z,37.17
2022-09-06T14:46:26.341Z,36.60
2022-09-06T14:49:01.714Z,37.09
2022-09-06T14:51:29.345Z,38.40
2022-09-06T14:53:59.232Z,39.67
2022-09-06T14:56:27.229Z,40.25
2022-09-06T14:58:57.394Z,40.84
2022-09-06T15:01:26.735Z,41.05
2022-09-06T15:03:55.784Z,40.95
2022-09-06T15:06:23.635Z,40.32
2022-09-06T15:08:50.695Z,39.67
2022-09-06T15:11:38.212Z,40.00
2022-09-06T15:14:08.233Z,38.44
2022-09-06T15:16:36.175Z,37.96
2022-09-06T15:19:03.231Z,39.10
2022-09-06T15:21:30.471Z,39.34
2022-09-06T15:23:57.626Z,39.01
2022-09-06T15:26:24.668Z,38.93
2022-09-06T15:28:52.234Z,39.06
2022-09-06T15:31:19.805Z,39.14
2022-09-06T15:33:49.039Z,39.86
2022-09-06T15:36:16.477Z,39.49
2022-09-06T15:38:52.422Z,40.08
2022-09-06T15:41:22.802Z,39.22
2022-09-06T15:43:50.954Z,39.74
2022-09-06T15:46:21.450Z,40.00
2022-09-06T15:48:50.623Z,39.16
2022-09-06T15:51:18.720Z,39.80
2022-09-06T15:53:46.394Z,40.26
2022-09-06T15:56:14.975Z,41.24
2022-09-06T15:58:41.953Z,41.28
2022-09-06T16:01:11.025Z,41.26
2022-09-06T16:03:39.911Z,41.44
2022-09-06T16:08:59.815Z,42.63
2022-09-06T16:11:27.758Z,42.83
2022-09-06T16:13:54.892Z,43.63
2022-09-06T16:16:22.939Z,42.95
2022-09-06T16:18:50.219Z,43.82
2022-09-06T16:21:23.990Z,45.95
2022-09-06T16:23:56.395Z,47.89
2022-09-06T16:26:29.440Z,47.95
2022-09-06T16:28:56.556Z,48.53
2022-09-06T16:31:23.864Z,48.95
2022-09-06T16:33:51.273Z,49.59
2022-09-06T16:36:19.030Z,51.57
2022-09-06T16:38:46.465Z,50.45
2022-09-06T16:41:24.101Z,50.70
2022-09-06T16:43:53.568Z,50.50
2022-09-06T16:46:21.849Z,50.89
2022-09-06T16:48:53.184Z,51.17
2022-09-06T16:51:21.957Z,51.76
2022-09-06T16:53:49.118Z,51.29
2022-09-06T16:56:17.946Z,52.67
2022-09-06T16:58:49.382Z,53.49
2022-09-06T17:01:16.784Z,53.59
2022-09-06T17:03:44.271Z,53.44
2022-09-06T17:07:38.385Z,54.33
2022-09-06T17:10:06.862Z,56.04
2022-09-06T17:12:34.095Z,55.68
2022-09-06T17:15:01.147Z,55.72
2022-09-06T17:17:28.292Z,56.85
2022-09-06T17:19:55.364Z,57.61
2022-09-06T17:22:22.589Z,58.22
2022-09-06T17:24:49.950Z,58.86
2022-09-06T17:27:17.097Z,59.32
2022-09-06T17:29:44.099Z,59.09
2022-09-06T17:32:11.197Z,60.20
2022-09-06T17:34:39.033Z,60.99
2022-09-06T17:37:06.069Z,61.51
2022-09-06T17:39:33.314Z,62.66
2022-09-06T17:42:02.336Z,62.95
2022-09-06T17:44:29.394Z,63.60
2022-09-06T17:47:12.086Z,64.72
2022-09-06T17:49:40.288Z,66.32
2022-09-06T17:52:07.259Z,66.20
2022-09-06T17:54:34.286Z,67.25
2022-09-06T17:57:01.432Z,66.61
2022-09-06T17:59:32.841Z,65.32
2022-09-06T18:02:02.074Z,64.30
2022-09-06T18:04:29.062Z,63.76
2022-09-06T18:06:56.474Z,63.89
2022-09-06T18:09:24.032Z,64.67
2022-09-06T18:11:51.122Z,65.87
2022-09-06T18:14:20.848Z,66.41
2022-09-06T18:16:49.458Z,67.48
2022-09-06T18:19:17.872Z,68.34
2022-09-06T18:21:45.314Z,68.99
2022-09-06T18:24:15.533Z,68.81
2022-09-06T18:26:43.427Z,68.88
2022-09-06T18:29:15.187Z,68.65
2022-09-06T18:31:44.551Z,67.01
2022-09-06T18:34:12.739Z,66.89
2022-09-06T18:36:39.982Z,66.91
2022-09-06T18:39:07.068Z,66.90
2022-09-06T18:41:52.844Z,67.06
2022-09-06T18:44:19.901Z,66.68
2022-09-06T18:46:47.326Z,66.72
2022-09-06T18:49:15.320Z,67.31
2022-09-06T18:51:42.572Z,67.86
2022-09-06T18:54:11.285Z,67.96
2022-09-06T18:56:38.807Z,68.51
2022-09-06T18:59:05.936Z,68.84
2022-09-06T19:01:35.203Z,66.84
2022-09-06T19:04:03.417Z,65.97
2022-09-06T19:06:31.816Z,66.52
2022-09-06T19:09:00.088Z,66.99
2022-09-06T19:11:27.325Z,67.64
2022-09-06T19:13:55.209Z,67.99
2022-09-06T19:16:23.429Z,68.22
2022-09-06T19:18:51.222Z,68.28
2022-09-06T19:21:19.498Z,68.42
2022-09-06T19:23:47.982Z,69.04
2022-09-06T19:26:19.567Z,70.44
2022-09-06T19:28:55.077Z,70.35
2022-09-06T19:31:23.587Z,68.34
2022-09-06T19:33:50.916Z,67.19
2022-09-06T19:36:18.883Z,67.44
2022-09-06T19:39:03.143Z,67.57
2022-09-06T19:41:32.354Z,67.98
2022-09-06T19:44:00.314Z,69.76
2022-09-06T19:46:28.002Z,70.48
2022-09-06T19:48:56.261Z,70.60
2022-09-06T19:51:23.705Z,70.69
2022-09-06T19:53:54.996Z,70.37
2022-09-06T19:56:32.966Z,68.92
2022-09-06T19:59:01.835Z,67.95
2022-09-06T20:01:31.257Z,68.63
2022-09-06T20:03:59.119Z,69.04
2022-09-06T20:06:27.182Z,70.55
2022-09-06T20:08:55.680Z,70.33
2022-09-06T20:11:23.831Z,70.15
2022-09-06T20:13:50.842Z,70.49
2022-09-06T20:16:20.600Z,70.40
2022-09-06T20:18:48.665Z,70.52
2022-09-06T20:21:17.885Z,70.41
2022-09-06T20:23:51.093Z,69.36
2022-09-06T20:26:18.193Z,68.59
2022-09-06T20:28:45.526Z,68.91
2022-09-06T20:31:15.618Z,69.27
2022-09-06T20:33:47.045Z,69.61
2022-09-06T20:36:16.931Z,71.19
2022-09-06T20:38:44.510Z,72.71
2022-09-06T20:41:23.000Z,74.47
2022-09-06T20:43:51.614Z,75.30
2022-09-06T20:46:19.737Z,74.81
2022-09-06T20:48:46.909Z,72.83
2022-09-06T20:51:21.160Z,71.69
2022-09-06T20:53:51.887Z,72.95
2022-09-06T20:56:21.173Z,73.27
2022-09-06T20:58:52.778Z,73.78
2022-09-06T21:01:23.156Z,73.60
2022-09-06T21:03:54.629Z,74.44
2022-09-06T21:06:22.685Z,74.81
2022-09-06T21:08:50.027Z,74.51
2022-09-06T21:11:17.402Z,73.09
2022-09-06T21:13:44.341Z,72.36
2022-09-06T21:16:11.441Z,72.00
2022-09-06T21:18:38.462Z,72.09
2022-09-06T21:21:06.633Z,72.68
2022-09-06T21:23:35.590Z,73.09
2022-09-06T21:26:03.749Z,73.38
2022-09-06T21:28:32.539Z,73.82
2022-09-06T21:31:08.547Z,74.24
2022-09-06T21:33:36.603Z,72.48
2022-09-06T21:36:09.131Z,70.41
2022-09-06T21:38:40.750Z,70.42
2022-09-06T21:41:08.306Z,71.43
2022-09-06T21:43:35.609Z,72.12
2022-09-06T21:46:03.277Z,72.88
2022-09-06T21:48:30.386Z,73.46
2022-09-06T21:50:57.699Z,74.20
2022-09-06T21:53:26.893Z,74.37
2022-09-06T21:56:00.310Z,72.92
2022-09-06T21:58:27.652Z,72.33
2022-09-06T22:00:56.569Z,72.10
2022-09-06T22:03:23.816Z,72.54
2022-09-06T22:05:50.680Z,74.39
2022-09-06T22:08:17.955Z,76.43
2022-09-06T22:10:45.037Z,76.79
2022-09-06T22:13:12.051Z,75.97
2022-09-06T22:15:39.370Z,75.71
2022-09-06T22:18:06.657Z,73.71
2022-09-06T22:20:34.731Z,72.53
2022-09-06T22:23:03.477Z,72.57
2022-09-06T22:25:31.382Z,72.65
2022-09-06T22:27:59.760Z,72.78
2022-09-06T22:30:26.717Z,72.97
2022-09-06T22:32:54.084Z,73.84
2022-09-06T22:35:21.106Z,74.43
2022-09-06T22:37:48.154Z,75.35
2022-09-06T22:40:15.303Z,75.36
2022-09-06T22:42:42.181Z,73.58
2022-09-06T22:45:09.910Z,72.89
2022-09-06T22:47:36.854Z,73.28
2022-09-06T22:50:04.215Z,73.59
2022-09-06T22:52:31.304Z,74.56
2022-09-06T22:54:58.413Z,75.01
2022-09-06T22:57:25.580Z,74.89
2022-09-06T22:59:52.622Z,76.11
2022-09-06T23:02:19.648Z,76.91
2022-09-06T23:04:46.934Z,75.25
2022-09-06T23:07:14.050Z,73.80
2022-09-06T23:09:41.020Z,73.76
2022-09-06T23:12:08.159Z,74.20
2022-09-06T23:14:35.291Z,74.72
2022-09-06T23:17:02.235Z,74.83
2022-09-06T23:19:29.061Z,74.74
2022-09-06T23:21:55.991Z,75.31
2022-09-06T23:24:23.075Z,75.36
2022-09-06T23:26:50.022Z,73.01
2022-09-06T23:29:17.067Z,71.80
2022-09-06T23:31:44.212Z,71.41
2022-09-06T23:34:11.593Z,72.23
2022-09-06T23:36:38.545Z,73.54
2022-09-06T23:39:07.404Z,74.03
2022-09-06T23:41:34.777Z,74.78
2022-09-06T23:44:02.213Z,75.40
2022-09-06T23:46:29.585Z,75.85
2022-09-06T23:48:56.749Z,76.23
2022-09-06T23:51:23.685Z,75.03
2022-09-06T23:53:50.828Z,74.49
2022-09-06T23:56:17.882Z,74.37
2022-09-06T23:58:44.830Z,74.54
